Eagle Kinarut — 9V8908 — position and weather

sailwx.info

Track history (hours):
 
Tides and Currents Weather Stations Pressure Air Temp Water Temp Dewpoint Dewpoint Depression Visibility Wind Speed Wind Dir Waves Ship Positions

Eagle Kinarut

Last reported at 2018-Apr-22 19:34 UTC. Time now 2018-Apr-23 03:58 UTC.
Position N 29°13' W 094°40'.

Length 243 m; draft 10.2 m.

Type: Tanker. MMSI: 564939000.

Date/timePositionNaut miles runAvg speedWind from/ knotsBaromVisibWave heightAir tempDewpointWater temp
2018-Apr-22 19:34N 29°13' W 094°40'0 0.0
2018-Apr-22 19:25N 29°13' W 094°40'0 0.0
2018-Apr-22 18:58N 29°13' W 094°40'0 0.0
2018-Apr-22 18:25N 29°13' W 094°40'0 0.1
2018-Apr-22 17:58N 29°13' W 094°40'0 0.0
2018-Apr-22 17:16N 29°13' W 094°40'0 0.0
2018-Apr-22 16:40N 29°13' W 094°40'0 0.1
2018-Apr-22 16:28N 29°13' W 094°40'0 0.0
2018-Apr-22 15:49N 29°13' W 094°40'0 0.0
2018-Apr-22 14:37N 29°13' W 094°40'0 0.0
2018-Apr-22 14:16N 29°13' W 094°40'0 0.0
2018-Apr-22 13:58N 29°13' W 094°40'0 0.0
2018-Apr-22 05:52N 29°14' W 094°40'0 0.0
2018-Apr-21 05:22N 29°13' W 094°40'0 0.0
2018-Apr-21 04:55N 29°13' W 094°40'0 0.0
2018-Apr-21 02:04N 29°13' W 094°40'0 0.1
2018-Apr-21 01:58N 29°13' W 094°40'0 0.0
2018-Apr-21 01:28N 29°13' W 094°40'0 0.0
2018-Apr-21 00:49N 29°13' W 094°40'0 0.0
2018-Apr-21 00:28N 29°13' W 094°40'0 0.0
2018-Apr-20 23:49N 29°13' W 094°40'0 0.0
2018-Apr-20 21:31N 29°13' W 094°40'0 0.0
2018-Apr-20 18:19N 29°13' W 094°40'0 0.0
2018-Apr-20 16:58N 29°13' W 094°40'0 0.0
2018-Apr-20 15:49N 29°13' W 094°40'38 1.2
2018-Apr-19 07:48N 28°36' W 094°49'4 1.1
2018-Apr-19 04:21N 28°34' W 094°46'4 0.3
2018-Apr-18 17:06N 28°34' W 094°42'0 4.7
2018-Apr-18 16:59N 28°34' W 094°42'3 5.2
2018-Apr-18 16:22N 28°30' W 094°41'2 5.5
2018-Apr-18 16:00N 28°28' W 094°40'3 6.1
2018-Apr-18 15:30N 28°26' W 094°39'3 5.5
2018-Apr-18 15:00N 28°23' W 094°37'2 3.8
2018-Apr-18 14:30N 28°23' W 094°35'2 3.7
2018-Apr-18 14:01N 28°23' W 094°33'2 3.6
2018-Apr-18 13:26N 28°21' W 094°32'2 0.4
2018-Apr-18 09:30N 28°20' W 094°31'0 0.1
2018-Apr-18 08:42N 28°20' W 094°31'0 0.0
2018-Apr-18 08:21N 28°20' W 094°31'0 0.1
2018-Apr-18 07:57N 28°20' W 094°31'0 0.1
2018-Apr-18 07:15N 28°20' W 094°31'0 0.2
2018-Apr-18 07:00N 28°20' W 094°31'0 0.0
2018-Apr-18 01:39N 28°20' W 094°31'0 0.0
2018-Apr-17 21:33N 28°20' W 094°31'5 0.9
2018-Apr-17 16:26N 28°25' W 094°30'0 1.1
2018-Apr-17 16:00N 28°24' W 094°30'1 0.2
2018-Apr-17 13:14N 28°24' W 094°29'0 0.0
2018-Apr-17 12:42N 28°24' W 094°29'0 0.0
2018-Apr-17 12:30N 28°24' W 094°29'0 0.0
2018-Apr-17 07:35N 28°24' W 094°29'0 0.1
2018-Apr-17 07:30N 28°24' W 094°29'0 0.0
2018-Apr-17 06:55N 28°24' W 094°29'0 0.0
2018-Apr-17 06:30N 28°24' W 094°29'  
Track history (hours):
 
Tides and Currents Weather Stations Pressure Air Temp Water Temp Dewpoint Dewpoint Depression Visibility Wind Speed Wind Dir Waves Ship Positions

Eagle Kinarut

Last reported at 2018-Apr-22 19:34 UTC. Time now 2018-Apr-23 03:58 UTC.
Position N 29°13' W 094°40'.

Length 243 m; draft 10.2 m.

Type: Tanker. MMSI: 564939000.

Date/timePositionNaut miles runAvg speedWind from/ knotsBaromVisibWave heightAir tempDewpointWater temp
2018-Apr-22 19:34N 29°13' W 094°40'0 0.0
2018-Apr-22 19:25N 29°13' W 094°40'0 0.0
2018-Apr-22 18:58N 29°13' W 094°40'0 0.0
2018-Apr-22 18:25N 29°13' W 094°40'0 0.1
2018-Apr-22 17:58N 29°13' W 094°40'0 0.0
2018-Apr-22 17:16N 29°13' W 094°40'0 0.0
2018-Apr-22 16:40N 29°13' W 094°40'0 0.1
2018-Apr-22 16:28N 29°13' W 094°40'0 0.0
2018-Apr-22 15:49N 29°13' W 094°40'0 0.0
2018-Apr-22 14:37N 29°13' W 094°40'0 0.0
2018-Apr-22 14:16N 29°13' W 094°40'0 0.0
2018-Apr-22 13:58N 29°13' W 094°40'0 0.0
2018-Apr-22 05:52N 29°14' W 094°40'0 0.0
2018-Apr-21 05:22N 29°13' W 094°40'0 0.0
2018-Apr-21 04:55N 29°13' W 094°40'0 0.0
2018-Apr-21 02:04N 29°13' W 094°40'0 0.1
2018-Apr-21 01:58N 29°13' W 094°40'0 0.0
2018-Apr-21 01:28N 29°13' W 094°40'0 0.0
2018-Apr-21 00:49N 29°13' W 094°40'0 0.0
2018-Apr-21 00:28N 29°13' W 094°40'0 0.0
2018-Apr-20 23:49N 29°13' W 094°40'0 0.0
2018-Apr-20 21:31N 29°13' W 094°40'0 0.0
2018-Apr-20 18:19N 29°13' W 094°40'0 0.0
2018-Apr-20 16:58N 29°13' W 094°40'0 0.0
2018-Apr-20 15:49N 29°13' W 094°40'38 1.2
2018-Apr-19 07:48N 28°36' W 094°49'4 1.1
2018-Apr-19 04:21N 28°34' W 094°46'4 0.3
2018-Apr-18 17:06N 28°34' W 094°42'0 4.7
2018-Apr-18 16:59N 28°34' W 094°42'3 5.2
2018-Apr-18 16:22N 28°30' W 094°41'2 5.5
2018-Apr-18 16:00N 28°28' W 094°40'3 6.1
2018-Apr-18 15:30N 28°26' W 094°39'3 5.5
2018-Apr-18 15:00N 28°23' W 094°37'2 3.8
2018-Apr-18 14:30N 28°23' W 094°35'2 3.7
2018-Apr-18 14:01N 28°23' W 094°33'2 3.6
2018-Apr-18 13:26N 28°21' W 094°32'2 0.4
2018-Apr-18 09:30N 28°20' W 094°31'0 0.1
2018-Apr-18 08:42N 28°20' W 094°31'0 0.0
2018-Apr-18 08:21N 28°20' W 094°31'0 0.1
2018-Apr-18 07:57N 28°20' W 094°31'0 0.1
2018-Apr-18 07:15N 28°20' W 094°31'0 0.2
2018-Apr-18 07:00N 28°20' W 094°31'0 0.0
2018-Apr-18 01:39N 28°20' W 094°31'0 0.0
2018-Apr-17 21:33N 28°20' W 094°31'5 0.9
2018-Apr-17 16:26N 28°25' W 094°30'0 1.1
2018-Apr-17 16:00N 28°24' W 094°30'1 0.2
2018-Apr-17 13:14N 28°24' W 094°29'0 0.0
2018-Apr-17 12:42N 28°24' W 094°29'0 0.0
2018-Apr-17 12:30N 28°24' W 094°29'0 0.0
2018-Apr-17 07:35N 28°24' W 094°29'0 0.1
2018-Apr-17 07:30N 28°24' W 094°29'0 0.0
2018-Apr-17 06:55N 28°24' W 094°29'0 0.0
2018-Apr-17 06:30N 28°24' W 094°29'  

Dump ship's entire track history